createdAt,value
2019-05-14T00:00:13.657Z,11.70
2019-05-14T00:02:42.978Z,11.70
2019-05-14T00:05:12.674Z,11.70
2019-05-14T00:07:42.016Z,11.60
2019-05-14T00:10:12.023Z,11.60
2019-05-14T00:12:41.885Z,11.60
2019-05-14T00:15:12.000Z,11.60
2019-05-14T00:17:41.756Z,11.60
2019-05-14T00:20:13.183Z,11.50
2019-05-14T00:22:42.928Z,11.50
2019-05-14T00:25:12.330Z,11.50
2019-05-14T00:27:41.682Z,11.50
2019-05-14T00:30:11.652Z,11.40
2019-05-14T00:32:42.001Z,11.40
2019-05-14T00:35:11.479Z,11.40
2019-05-14T00:37:41.869Z,11.40
2019-05-14T00:40:11.893Z,11.30
2019-05-14T00:42:41.612Z,11.30
2019-05-14T00:45:11.722Z,11.30
2019-05-14T00:47:41.780Z,11.30
2019-05-14T00:50:11.762Z,11.30
2019-05-14T00:52:44.166Z,11.30
2019-05-14T00:55:12.517Z,11.20
2019-05-14T00:57:42.602Z,11.20
2019-05-14T01:00:12.622Z,11.20
2019-05-14T01:02:42.234Z,11.10
2019-05-14T01:05:12.375Z,11.20
2019-05-14T01:07:42.469Z,11.10
2019-05-14T01:10:12.030Z,11.10
2019-05-14T01:12:41.742Z,11.10
2019-05-14T01:15:14.074Z,11.10
2019-05-14T01:17:42.438Z,11.10
2019-05-14T01:20:12.420Z,11.00
2019-05-14T01:22:42.385Z,11.00
2019-05-14T01:25:12.338Z,11.00
2019-05-14T01:27:41.938Z,11.00
2019-05-14T01:30:12.444Z,10.90
2019-05-14T01:32:43.113Z,10.90
2019-05-14T01:35:12.507Z,10.90
2019-05-14T01:37:41.903Z,10.90
2019-05-14T01:40:11.681Z,10.80
2019-05-14T01:42:41.568Z,10.80
2019-05-14T01:45:24.457Z,10.80
2019-05-14T01:47:42.523Z,10.70
2019-05-14T01:50:12.018Z,10.70
2019-05-14T01:52:41.752Z,10.70
2019-05-14T01:55:11.616Z,10.60
2019-05-14T01:57:42.547Z,10.60
2019-05-14T02:00:12.587Z,10.60
2019-05-14T02:02:41.999Z,10.60
2019-05-14T02:05:12.418Z,10.60
2019-05-14T02:07:42.249Z,10.50
2019-05-14T02:10:12.535Z,10.50
2019-05-14T02:12:42.323Z,10.40
2019-05-14T02:15:12.231Z,10.40
2019-05-14T02:17:41.683Z,10.40
2019-05-14T02:20:12.786Z,10.40
2019-05-14T02:22:42.109Z,10.30
2019-05-14T02:25:12.837Z,10.30
2019-05-14T02:27:42.237Z,10.20
2019-05-14T02:30:11.796Z,10.20
2019-05-14T02:32:41.125Z,10.10
2019-05-14T02:35:10.880Z,10.10
2019-05-14T02:37:40.600Z,10.10
2019-05-14T02:40:10.467Z,10.10
2019-05-14T02:42:40.438Z,10.00
2019-05-14T02:45:10.434Z,10.00
2019-05-14T02:47:40.727Z,10.00
2019-05-14T02:50:10.428Z,10.00
2019-05-14T02:52:40.525Z,9.90
2019-05-14T02:55:10.230Z,9.90
2019-05-14T02:57:39.733Z,9.90
2019-05-14T03:00:10.294Z,9.80
2019-05-14T03:02:40.418Z,9.80
2019-05-14T03:05:10.410Z,9.80
2019-05-14T03:07:39.887Z,9.70
2019-05-14T03:10:10.206Z,9.70
2019-05-14T03:12:40.041Z,9.70
2019-05-14T03:15:10.438Z,9.70
2019-05-14T03:17:40.606Z,9.70
2019-05-14T03:20:11.259Z,9.70
2019-05-14T03:22:56.024Z,9.60
2019-05-14T03:25:14.365Z,9.60
2019-05-14T03:27:43.748Z,9.60
2019-05-14T03:30:14.885Z,9.60
2019-05-14T03:32:44.215Z,9.60
2019-05-14T03:35:14.747Z,9.50
2019-05-14T03:37:44.413Z,9.50
2019-05-14T03:40:13.987Z,9.50
2019-05-14T03:42:43.314Z,9.50
2019-05-14T03:45:13.034Z,9.50
2019-05-14T03:47:42.437Z,9.40
2019-05-14T03:50:12.194Z,9.40
2019-05-14T03:52:42.103Z,9.40
2019-05-14T03:55:11.823Z,9.40
2019-05-14T03:57:41.157Z,9.40
2019-05-14T04:00:10.801Z,9.30
2019-05-14T04:02:41.107Z,9.30
2019-05-14T04:05:10.754Z,9.30
2019-05-14T04:07:42.227Z,9.30
2019-05-14T04:10:12.186Z,9.30
2019-05-14T04:12:44.255Z,9.30
2019-05-14T04:15:13.715Z,9.30
2019-05-14T04:17:45.164Z,9.30
2019-05-14T04:20:14.621Z,9.30
2019-05-14T04:22:49.934Z,9.20
2019-05-14T04:25:19.520Z,9.20
2019-05-14T04:27:53.567Z,9.20
2019-05-14T04:30:24.522Z,9.20
2019-05-14T04:32:55.765Z,9.20
2019-05-14T04:35:25.331Z,9.20
2019-05-14T04:37:54.806Z,9.20
2019-05-14T04:43:49.683Z,9.20
2019-05-14T04:46:19.933Z,9.20
2019-05-14T04:48:50.797Z,9.20
2019-05-14T04:51:19.996Z,9.20
2019-05-14T04:53:50.318Z,9.20
2019-05-14T04:56:20.135Z,9.30
2019-05-14T04:58:50.666Z,9.30
2019-05-14T05:01:22.144Z,9.30
2019-05-14T05:03:52.051Z,9.30
2019-05-14T05:06:24.125Z,9.40
2019-05-14T05:08:53.618Z,9.40
2019-05-14T05:11:23.003Z,9.40
2019-05-14T05:13:52.336Z,9.50
2019-05-14T05:16:21.643Z,9.50
2019-05-14T05:18:50.974Z,9.60
2019-05-14T05:21:20.285Z,9.50
2019-05-14T05:23:49.616Z,9.60
2019-05-14T05:26:18.934Z,9.60
2019-05-14T05:29:02.387Z,9.70
2019-05-14T05:31:19.290Z,9.70
2019-05-14T05:33:49.165Z,9.80
2019-05-14T05:36:18.770Z,9.80
2019-05-14T05:38:49.050Z,9.90
2019-05-14T05:41:19.261Z,10.00
2019-05-14T05:43:49.902Z,10.00
2019-05-14T05:46:19.482Z,10.10
2019-05-14T05:48:48.947Z,10.10
2019-05-14T05:51:18.968Z,10.20
2019-05-14T05:53:49.499Z,10.30
2019-05-14T05:56:18.976Z,10.40
2019-05-14T05:58:49.019Z,10.40
2019-05-14T06:01:19.611Z,10.50
2019-05-14T06:03:49.523Z,10.60
2019-05-14T06:06:19.416Z,10.70
2019-05-14T06:08:49.494Z,10.80
2019-05-14T06:11:20.054Z,10.90
2019-05-14T06:13:49.416Z,11.00
2019-05-14T06:16:18.902Z,11.10
2019-05-14T06:18:48.768Z,11.30
2019-05-14T06:21:19.149Z,11.40
2019-05-14T06:23:49.508Z,11.60
2019-05-14T06:26:19.983Z,11.70
2019-05-14T06:28:49.787Z,11.90
2019-05-14T06:31:20.298Z,12.00
2019-05-14T06:33:49.642Z,12.10
2019-05-14T06:36:19.754Z,12.30
2019-05-14T06:38:49.683Z,12.40
2019-05-14T06:41:20.433Z,12.60
2019-05-14T06:43:49.761Z,12.90
2019-05-14T06:46:19.609Z,13.10
2019-05-14T06:48:49.128Z,13.30
2019-05-14T06:51:19.985Z,13.60
2019-05-14T06:53:50.670Z,13.80
2019-05-14T06:56:21.835Z,14.00
2019-05-14T06:58:51.022Z,14.30
2019-05-14T07:01:20.329Z,14.50
2019-05-14T07:03:49.666Z,14.70
2019-05-14T07:06:19.058Z,14.90
2019-05-14T07:08:52.150Z,15.00
2019-05-14T07:11:19.409Z,15.10
2019-05-14T07:13:49.823Z,15.20
2019-05-14T07:16:20.109Z,15.30
2019-05-14T07:18:53.639Z,15.50
2019-05-14T07:21:20.594Z,15.70
2019-05-14T07:23:49.910Z,15.90
2019-05-14T07:26:19.576Z,16.10
2019-05-14T07:28:49.232Z,16.30
2019-05-14T07:31:19.721Z,16.60
2019-05-14T07:33:49.654Z,16.80
2019-05-14T07:36:20.003Z,17.00
2019-05-14T07:38:49.521Z,17.20
2019-05-14T07:41:19.451Z,17.40
2019-05-14T07:43:48.956Z,17.50
2019-05-14T07:46:19.455Z,17.60
2019-05-14T07:49:03.932Z,17.70
2019-05-14T07:51:19.891Z,17.80
2019-05-14T07:53:49.254Z,18.00
2019-05-14T07:56:18.938Z,18.20
2019-05-14T07:58:49.149Z,18.30
2019-05-14T08:01:18.934Z,18.40
2019-05-14T08:03:49.005Z,18.50
2019-05-14T08:06:19.678Z,18.60
2019-05-14T08:08:50.067Z,18.80
2019-05-14T08:11:19.499Z,18.80
2019-05-14T08:13:49.905Z,19.00
2019-05-14T08:16:19.409Z,19.10
2019-05-14T08:18:49.068Z,19.10
2019-05-14T08:21:19.324Z,19.30
2019-05-14T08:23:49.142Z,19.40
2019-05-14T08:26:19.229Z,19.50
2019-05-14T08:28:49.056Z,19.50
2019-05-14T08:31:18.895Z,19.60
2019-05-14T08:33:49.066Z,19.80
2019-05-14T08:36:18.860Z,19.90
2019-05-14T08:38:50.242Z,20.00
2019-05-14T08:41:20.050Z,20.10
2019-05-14T08:43:49.615Z,20.20
2019-05-14T08:46:19.432Z,20.20
2019-05-14T08:48:49.538Z,20.30
2019-05-14T08:51:19.267Z,20.40
2019-05-14T08:53:50.268Z,20.40
2019-05-14T08:56:19.702Z,20.40
2019-05-14T08:58:49.613Z,20.50
2019-05-14T09:01:20.233Z,20.60
2019-05-14T09:03:49.909Z,20.70
2019-05-14T09:06:20.386Z,20.80
2019-05-14T09:08:50.151Z,20.90
2019-05-14T09:11:24.090Z,21.00
2019-05-14T09:13:51.643Z,21.10
2019-05-14T09:16:37.025Z,21.20
2019-05-14T09:18:52.055Z,21.30
2019-05-14T09:21:21.396Z,21.40
2019-05-14T09:23:50.717Z,21.60
2019-05-14T09:26:20.042Z,21.70
2019-05-14T09:28:49.373Z,21.80
2019-05-14T09:31:19.838Z,21.90
2019-05-14T09:33:49.787Z,22.00
2019-05-14T09:36:23.571Z,22.10
2019-05-14T09:38:50.230Z,22.10
2019-05-14T09:41:20.220Z,22.10
2019-05-14T09:43:49.543Z,22.00
2019-05-14T09:46:18.871Z,21.90
2019-05-14T09:48:48.847Z,21.80
2019-05-14T09:51:18.616Z,21.80
2019-05-14T09:53:49.244Z,21.70
2019-05-14T09:56:19.698Z,21.70
2019-05-14T09:58:49.721Z,21.50
2019-05-14T10:01:20.365Z,21.30
2019-05-14T10:03:49.973Z,21.30
2019-05-14T10:06:20.962Z,21.20
2019-05-14T10:08:50.545Z,21.30
2019-05-14T10:11:19.871Z,21.40
2019-05-14T10:13:49.198Z,21.50
2019-05-14T10:16:19.061Z,21.70
2019-05-14T10:18:49.769Z,21.90
2019-05-14T10:21:19.560Z,22.00
2019-05-14T10:23:48.885Z,22.10
2019-05-14T10:26:18.738Z,22.20
2019-05-14T10:28:48.611Z,22.30
2019-05-14T10:31:18.579Z,22.40
2019-05-14T10:33:48.690Z,22.40
2019-05-14T10:36:19.250Z,22.40
2019-05-14T10:38:48.858Z,22.30
2019-05-14T10:41:19.242Z,22.40
2019-05-14T10:43:49.644Z,22.40
2019-05-14T10:46:20.438Z,22.50
2019-05-14T10:48:49.779Z,22.60
2019-05-14T10:51:19.098Z,22.60
2019-05-14T10:53:49.092Z,22.60
2019-05-14T10:56:19.038Z,22.70
2019-05-14T10:58:49.373Z,22.60
2019-05-14T11:01:22.374Z,22.60
2019-05-14T11:03:49.798Z,22.50
2019-05-14T11:06:19.118Z,22.50
2019-05-14T11:08:49.093Z,22.60
2019-05-14T11:11:18.844Z,22.60
2019-05-14T11:13:48.173Z,22.60
2019-05-14T11:16:19.077Z,22.50
2019-05-14T11:18:49.918Z,22.30
2019-05-14T11:21:26.548Z,22.20
2019-05-14T11:23:51.581Z,21.90
2019-05-14T11:26:20.897Z,21.70
2019-05-14T11:28:50.240Z,21.50
2019-05-14T11:31:19.633Z,21.30
2019-05-14T11:33:49.939Z,21.20
2019-05-14T11:36:19.575Z,21.00
2019-05-14T11:38:50.764Z,20.90
2019-05-14T11:41:20.514Z,20.90
2019-05-14T11:43:49.922Z,20.70
2019-05-14T11:46:29.589Z,20.70
2019-05-14T11:48:50.310Z,20.60
2019-05-14T11:51:40.524Z,20.50
2019-05-14T11:53:50.734Z,20.40
2019-05-14T11:56:20.142Z,20.20
2019-05-14T11:58:49.537Z,20.10
2019-05-14T12:01:19.176Z,20.10
2019-05-14T12:03:50.417Z,19.90
2019-05-14T12:06:19.601Z,19.90
2019-05-14T12:08:49.173Z,19.80
2019-05-14T12:11:19.164Z,19.60
2019-05-14T12:13:49.079Z,19.60
2019-05-14T12:16:18.471Z,19.40
2019-05-14T12:18:48.491Z,19.30
2019-05-14T12:21:17.981Z,19.20
2019-05-14T12:23:47.328Z,19.20
2019-05-14T12:26:19.199Z,19.20
2019-05-14T12:28:49.470Z,19.10
2019-05-14T12:31:19.033Z,19.10
2019-05-14T12:33:48.946Z,19.00
2019-05-14T12:36:19.355Z,19.00
2019-05-14T12:38:48.986Z,18.90
2019-05-14T12:41:19.392Z,18.90
2019-05-14T12:43:49.011Z,18.90
2019-05-14T12:46:20.057Z,18.90
2019-05-14T12:48:49.668Z,18.90
2019-05-14T12:51:19.098Z,18.80
2019-05-14T12:53:48.915Z,18.80
2019-05-14T12:56:18.940Z,18.80
2019-05-14T12:58:49.626Z,18.70
2019-05-14T13:01:19.970Z,18.60
2019-05-14T13:03:49.650Z,18.60
2019-05-14T13:06:19.271Z,18.60
2019-05-14T13:08:49.292Z,18.60
2019-05-14T13:11:19.051Z,18.60
2019-05-14T13:13:49.037Z,18.60
2019-05-14T13:16:19.247Z,18.60
2019-05-14T13:18:50.201Z,18.60
2019-05-14T13:21:20.814Z,18.60
2019-05-14T13:23:50.209Z,18.60
2019-05-14T13:26:19.542Z,18.50
2019-05-14T13:28:50.763Z,18.50
2019-05-14T13:31:19.895Z,18.50
2019-05-14T13:33:50.285Z,18.50
2019-05-14T13:36:20.775Z,18.40
2019-05-14T13:38:51.387Z,18.50
2019-05-14T13:41:20.713Z,18.50
2019-05-14T13:43:51.009Z,18.50
2019-05-14T13:46:21.302Z,18.50
2019-05-14T13:48:50.630Z,18.50
2019-05-14T13:51:19.957Z,18.50
2019-05-14T13:53:49.951Z,18.50
2019-05-14T13:56:19.581Z,18.40
2019-05-14T13:58:49.918Z,18.40
2019-05-14T14:01:19.638Z,18.40
2019-05-14T14:04:02.239Z,18.50
2019-05-14T14:06:21.170Z,18.50
2019-05-14T14:08:50.559Z,18.50
2019-05-14T14:11:19.898Z,18.50
2019-05-14T14:13:49.266Z,18.50
2019-05-14T14:16:19.584Z,18.40
2019-05-14T14:18:50.307Z,18.40
2019-05-14T14:21:20.022Z,18.30
2019-05-14T14:23:49.879Z,18.30
2019-05-14T14:26:19.553Z,18.30
2019-05-14T14:28:49.529Z,18.30
2019-05-14T14:31:19.198Z,18.40
2019-05-14T14:33:49.638Z,18.40
2019-05-14T14:36:20.094Z,18.30
2019-05-14T14:38:49.939Z,18.30
2019-05-14T14:41:19.701Z,18.30
2019-05-14T14:43:53.514Z,18.30
2019-05-14T14:46:21.422Z,18.20
2019-05-14T14:48:51.913Z,18.30
2019-05-14T14:51:21.250Z,18.30
2019-05-14T14:54:00.174Z,18.30
2019-05-14T14:56:21.598Z,18.30
2019-05-14T14:58:50.921Z,18.30
2019-05-14T15:01:20.254Z,18.40
2019-05-14T15:03:50.558Z,18.30
2019-05-14T15:06:21.457Z,18.30
2019-05-14T15:08:50.778Z,18.30
2019-05-14T15:11:20.118Z,18.30
2019-05-14T15:13:49.430Z,18.30
2019-05-14T15:16:20.123Z,18.30
2019-05-14T15:18:50.017Z,18.30
2019-05-14T15:21:19.478Z,18.30
2019-05-14T15:24:05.968Z,18.30
2019-05-14T15:26:19.987Z,18.30
2019-05-14T15:28:49.668Z,18.40
2019-05-14T15:31:19.408Z,18.30
2019-05-14T15:33:50.901Z,18.30
2019-05-14T15:36:20.038Z,18.30
2019-05-14T15:38:49.423Z,18.30
2019-05-14T15:41:20.085Z,18.30
2019-05-14T15:43:49.789Z,18.20
2019-05-14T15:46:19.138Z,18.20
2019-05-14T15:48:48.926Z,18.10
2019-05-14T15:51:19.502Z,18.10
2019-05-14T15:54:06.416Z,18.00
2019-05-14T15:56:20.204Z,18.00
2019-05-14T15:58:49.547Z,18.00
2019-05-14T16:01:19.418Z,18.00
2019-05-14T16:03:49.006Z,18.10
2019-05-14T16:06:19.300Z,18.00
2019-05-14T16:08:49.050Z,18.00
2019-05-14T16:11:18.793Z,18.00
2019-05-14T16:13:49.370Z,18.00
2019-05-14T16:16:19.689Z,18.00
2019-05-14T16:18:49.289Z,17.90
2019-05-14T16:21:18.604Z,17.90
2019-05-14T16:23:47.938Z,17.90
2019-05-14T16:26:18.791Z,17.90
2019-05-14T16:28:48.461Z,17.90
2019-05-14T16:31:18.395Z,17.90
2019-05-14T16:33:49.793Z,17.90
2019-05-14T16:36:20.334Z,17.90
2019-05-14T16:38:49.670Z,17.80
2019-05-14T16:41:18.987Z,17.80
2019-05-14T16:43:49.368Z,17.80
2019-05-14T16:46:19.152Z,17.80
2019-05-14T16:48:48.950Z,17.80
2019-05-14T16:51:19.218Z,17.80
2019-05-14T16:53:49.096Z,17.80
2019-05-14T16:56:19.178Z,17.80
2019-05-14T16:58:49.466Z,17.80
2019-05-14T17:01:19.355Z,17.80
2019-05-14T17:03:50.067Z,17.80
2019-05-14T17:06:19.550Z,17.80
2019-05-14T17:08:49.256Z,17.80
2019-05-14T17:11:18.650Z,17.80
2019-05-14T17:13:49.003Z,17.80
2019-05-14T17:16:19.620Z,17.80
2019-05-14T17:18:49.197Z,17.70
2019-05-14T17:21:18.610Z,17.70
2019-05-14T17:23:48.884Z,17.70
2019-05-14T17:26:18.874Z,17.60
2019-05-14T17:28:48.915Z,17.60
2019-05-14T17:31:19.430Z,17.60
2019-05-14T17:33:49.962Z,17.50
2019-05-14T17:36:19.650Z,17.50
2019-05-14T17:38:49.436Z,17.50
2019-05-14T17:41:20.042Z,17.40
2019-05-14T17:43:49.708Z,17.40
2019-05-14T17:46:19.036Z,17.30
2019-05-14T17:48:48.768Z,17.30
2019-05-14T17:51:18.334Z,17.20
2019-05-14T17:53:48.714Z,17.20
2019-05-14T17:56:19.084Z,17.10
2019-05-14T17:58:49.179Z,17.10
2019-05-14T18:01:18.576Z,17.00
2019-05-14T18:03:49.088Z,16.90
2019-05-14T18:06:19.549Z,16.90
2019-05-14T18:08:49.113Z,16.90
2019-05-14T18:11:19.145Z,16.80
2019-05-14T18:13:49.787Z,16.80
2019-05-14T18:16:19.355Z,16.70
2019-05-14T18:18:49.473Z,16.60
2019-05-14T18:21:18.995Z,16.60
2019-05-14T18:23:49.152Z,16.60
2019-05-14T18:26:19.068Z,16.50
2019-05-14T18:28:48.573Z,16.50
2019-05-14T18:31:20.391Z,16.40
2019-05-14T18:33:49.400Z,16.40
2019-05-14T18:36:19.276Z,16.40
2019-05-14T18:38:49.930Z,16.30
2019-05-14T18:41:19.387Z,16.30
2019-05-14T18:43:48.961Z,16.20
2019-05-14T18:46:19.182Z,16.20
2019-05-14T18:48:48.964Z,16.10
2019-05-14T18:51:19.585Z,16.10
2019-05-14T18:53:49.278Z,16.00
2019-05-14T18:56:24.023Z,16.00
2019-05-14T18:58:49.646Z,15.90
2019-05-14T19:01:19.578Z,15.90
2019-05-14T19:03:49.615Z,15.80
2019-05-14T19:06:19.343Z,15.70
2019-05-14T19:08:48.677Z,15.70
2019-05-14T19:11:18.317Z,15.70
2019-05-14T19:13:48.431Z,15.60
2019-05-14T19:16:17.948Z,15.60
2019-05-14T19:18:48.893Z,15.50
2019-05-14T19:21:18.479Z,15.40
2019-05-14T19:23:49.178Z,15.40
2019-05-14T19:26:33.031Z,15.40
2019-05-14T19:28:49.657Z,15.30
2019-05-14T19:31:19.042Z,15.20
2019-05-14T19:33:48.878Z,15.20
2019-05-14T19:36:18.733Z,15.10
2019-05-14T19:38:48.310Z,15.10
2019-05-14T19:41:21.036Z,15.10
2019-05-14T19:43:48.879Z,15.00
2019-05-14T19:46:19.182Z,15.00
2019-05-14T19:48:48.670Z,14.90
2019-05-14T19:51:18.754Z,14.90
2019-05-14T19:53:49.545Z,14.90
2019-05-14T19:56:20.280Z,14.80
2019-05-14T19:58:49.608Z,14.70
2019-05-14T20:01:19.463Z,14.70
2019-05-14T20:03:48.904Z,14.60
2019-05-14T20:06:18.796Z,14.60
2019-05-14T20:08:49.393Z,14.50
2019-05-14T20:11:19.409Z,14.50
2019-05-14T20:13:48.823Z,14.40
2019-05-14T20:16:18.575Z,14.30
2019-05-14T20:18:48.796Z,14.30
2019-05-14T20:21:18.277Z,14.20
2019-05-14T20:23:48.124Z,14.20
2019-05-14T20:26:17.725Z,14.10
2019-05-14T20:28:48.374Z,14.00
2019-05-14T20:31:18.183Z,14.00
2019-05-14T20:33:48.532Z,14.00
2019-05-14T20:36:18.788Z,13.90
2019-05-14T20:38:49.473Z,13.80
2019-05-14T20:41:18.797Z,13.80
2019-05-14T20:43:48.191Z,13.70
2019-05-14T20:46:18.576Z,13.60
2019-05-14T20:48:48.366Z,13.60
2019-05-14T20:51:18.699Z,13.50
2019-05-14T20:53:48.758Z,13.50
2019-05-14T20:56:19.031Z,13.40
2019-05-14T20:58:49.575Z,13.40
2019-05-14T21:01:20.141Z,13.30
2019-05-14T21:03:49.462Z,13.30
2019-05-14T21:06:18.992Z,13.30
2019-05-14T21:08:49.061Z,13.20
2019-05-14T21:11:19.075Z,13.20
2019-05-14T21:13:50.415Z,13.20
2019-05-14T21:16:19.853Z,13.10
2019-05-14T21:18:49.174Z,13.10
2019-05-14T21:21:19.637Z,13.00
2019-05-14T21:23:49.146Z,13.00
2019-05-14T21:26:19.450Z,12.90
2019-05-14T21:28:50.131Z,12.90
2019-05-14T21:31:19.469Z,12.80
2019-05-14T21:33:49.851Z,12.80
2019-05-14T21:36:19.537Z,12.80
2019-05-14T21:38:49.198Z,12.70
2019-05-14T21:41:20.463Z,12.70
2019-05-14T21:43:49.703Z,12.70
2019-05-14T21:46:19.528Z,12.60
2019-05-14T21:48:48.933Z,12.60
2019-05-14T21:51:18.266Z,12.50
2019-05-14T21:53:48.279Z,12.50
2019-05-14T21:56:21.803Z,12.50
2019-05-14T21:58:49.902Z,12.40
2019-05-14T22:01:19.574Z,12.40
2019-05-14T22:03:49.863Z,12.30
2019-05-14T22:06:19.195Z,12.30
2019-05-14T22:08:48.900Z,12.30
2019-05-14T22:11:18.810Z,12.20
2019-05-14T22:13:49.780Z,12.20
2019-05-14T22:16:19.148Z,12.10
2019-05-14T22:18:48.515Z,12.10
2019-05-14T22:21:18.950Z,12.10
2019-05-14T22:23:48.353Z,12.00
2019-05-14T22:26:18.620Z,12.00
2019-05-14T22:28:48.171Z,11.90
2019-05-14T22:31:19.306Z,11.90
2019-05-14T22:33:48.749Z,11.80
2019-05-14T22:36:21.330Z,11.80
2019-05-14T22:38:49.109Z,11.80
2019-05-14T22:41:18.580Z,11.70
2019-05-14T22:43:51.118Z,11.60
2019-05-14T22:46:20.134Z,11.60
2019-05-14T22:48:51.679Z,11.60
2019-05-14T22:51:20.482Z,11.50
2019-05-14T22:53:49.793Z,11.50
2019-05-14T22:56:19.202Z,11.40
2019-05-14T22:58:48.955Z,11.40
2019-05-14T23:01:18.587Z,11.30
2019-05-14T23:03:48.927Z,11.30
2019-05-14T23:06:18.956Z,11.20
2019-05-14T23:08:48.923Z,11.20
2019-05-14T23:11:19.697Z,11.20
2019-05-14T23:13:49.346Z,11.10
2019-05-14T23:16:33.097Z,11.10
2019-05-14T23:18:50.714Z,11.10
2019-05-14T23:21:21.101Z,11.00
2019-05-14T23:23:50.433Z,11.00
2019-05-14T23:26:19.915Z,10.90
2019-05-14T23:28:49.379Z,10.90
2019-05-14T23:31:18.991Z,10.80
2019-05-14T23:33:48.962Z,10.80
2019-05-14T23:36:18.787Z,10.70
2019-05-14T23:38:49.270Z,10.60
2019-05-14T23:41:19.329Z,10.50
2019-05-14T23:43:48.662Z,10.50
2019-05-14T23:46:18.364Z,10.40
2019-05-14T23:48:48.528Z,10.40
2019-05-14T23:51:19.157Z,10.40
2019-05-14T23:53:48.510Z,10.30
2019-05-14T23:56:19.355Z,10.30
2019-05-14T23:58:55.795Z,10.30
